Accueil
METAR-TAF:

METAR-TAF

Aéroports :

Meiringen, Suisse

latitude: 46-44-25N, longitude: 8-06-36E, altitude: 577 m

Observation

Le bulletin a été fait il y a 21 minutes, à 22:20 UTC
Vent 1 kt de direction variable
Température 2°C
Humidité 75%
Pression 1015 hPa
Visibilité 10 km ou plus
Nuages fragmentés à une hauteur de 8900 ft
Ciel couvert à une hauteur de 11000 ft

METAR: LSMM 282220Z AUTO VRB01KT 9999NDV BKN089 OVC110 02/M02 Q1015 RMK

Heure: 23:41 (22:41 UTC)


TAF: absent

Observations et prévisions météorologiques de plus de 4000 aéroports (messages METAR et TAF).

Les stations disponibles sont représentées par des disques jaunes et rouges sur la carte.

Passer la souris dessus pour voir le nom de la station.

Cliquer dessus pour voir les observations et prévisions météorologiques.

Pour changer de carte: cliquez sur les boutons verts avec une croix noire pour zoomer, sur le bouton vert avec un tiret pour effectuer un zoom arrière, ou sur les flèches vertes pour les cartes adjacentes.


METAR-TAF: